createdAt,value
2023-04-14T00:00:58.951Z,14.43
2023-04-14T00:03:27.259Z,14.52
2023-04-14T00:05:54.604Z,14.64
2023-04-14T00:08:21.923Z,14.78
2023-04-14T00:10:49.516Z,14.93
2023-04-14T00:13:16.641Z,15.10
2023-04-14T00:15:43.983Z,15.26
2023-04-14T00:18:11.478Z,15.40
2023-04-14T00:20:38.681Z,15.29
2023-04-14T00:23:05.864Z,14.43
2023-04-14T00:25:34.060Z,13.61
2023-04-14T00:28:01.316Z,13.00
2023-04-14T00:30:28.644Z,12.75
2023-04-14T00:32:56.369Z,13.38
2023-04-14T00:35:24.889Z,14.04
2023-04-14T00:37:57.747Z,14.46
2023-04-14T00:40:25.408Z,14.75
2023-04-14T00:42:52.554Z,14.95
2023-04-14T00:45:20.122Z,15.10
2023-04-14T00:47:51.048Z,14.98
2023-04-14T00:50:20.230Z,14.16
2023-04-14T00:52:50.169Z,13.38
2023-04-14T00:55:21.226Z,12.80
2023-04-14T00:57:49.312Z,12.54
2023-04-14T01:03:01.077Z,13.74
2023-04-14T01:05:29.319Z,14.16
2023-04-14T01:07:56.621Z,14.45
2023-04-14T01:10:28.766Z,14.68
2023-04-14T01:13:33.897Z,14.85
2023-04-14T01:16:18.775Z,14.54
2023-04-14T01:18:49.369Z,13.46
2023-04-14T01:21:26.859Z,12.64
2023-04-14T01:24:06.948Z,12.28
2023-04-14T01:26:34.941Z,12.83
2023-04-14T01:29:26.998Z,13.29
2023-04-14T01:32:11.092Z,13.68
2023-04-14T01:34:58.536Z,13.89
2023-04-14T01:37:34.364Z,14.05
2023-04-14T01:40:12.418Z,14.17
2023-04-14T01:42:46.990Z,14.28
2023-04-14T01:45:28.139Z,14.19
2023-04-14T01:47:56.356Z,13.36
2023-04-14T01:50:24.838Z,12.64
2023-04-14T01:52:57.659Z,12.09
2023-04-14T01:55:29.033Z,11.84
2023-04-14T01:57:58.473Z,12.35
2023-04-14T02:00:27.817Z,12.88
2023-04-14T02:02:56.341Z,13.21
2023-04-14T02:05:26.064Z,13.41
2023-04-14T02:07:55.364Z,13.57
2023-04-14T02:10:25.982Z,13.72
2023-04-14T02:12:58.069Z,13.89
2023-04-14T02:15:26.721Z,14.05
2023-04-14T02:17:55.728Z,14.18
2023-04-14T02:20:23.569Z,14.29
2023-04-14T02:22:51.660Z,14.40
2023-04-14T02:25:19.210Z,14.28
2023-04-14T02:27:55.453Z,13.48
2023-04-14T02:30:29.130Z,12.65
2023-04-14T02:33:02.527Z,12.01
2023-04-14T02:35:38.440Z,11.88
2023-04-14T02:38:14.845Z,12.48
2023-04-14T02:40:44.429Z,13.00
2023-04-14T02:43:20.658Z,13.33
2023-04-14T02:45:49.665Z,13.58
2023-04-14T02:48:22.107Z,13.71
2023-04-14T02:50:53.412Z,13.89
2023-04-14T02:53:26.456Z,13.99
2023-04-14T02:55:53.902Z,14.07
2023-04-14T02:58:21.904Z,14.16
2023-04-14T03:00:50.827Z,14.23
2023-04-14T03:03:19.092Z,14.32
2023-04-14T03:05:47.632Z,14.38
2023-04-14T03:08:17.256Z,14.43
2023-04-14T03:10:49.420Z,14.46
2023-04-14T03:13:19.410Z,14.48
2023-04-14T03:15:48.113Z,14.50
2023-04-14T03:18:18.394Z,14.53
2023-04-14T03:20:47.939Z,14.55
2023-04-14T03:23:19.408Z,14.55
2023-04-14T03:25:47.760Z,14.55
2023-04-14T03:28:19.730Z,14.57
2023-04-14T03:30:51.963Z,14.42
2023-04-14T03:33:24.366Z,13.58
2023-04-14T03:35:54.102Z,12.79
2023-04-14T03:38:24.200Z,12.37
2023-04-14T03:40:52.801Z,12.81
2023-04-14T03:43:23.704Z,13.34
2023-04-14T03:45:52.506Z,13.74
2023-04-14T03:48:22.091Z,14.02
2023-04-14T03:50:53.063Z,14.18
2023-04-14T03:53:22.131Z,14.30
2023-04-14T03:55:52.947Z,14.39
2023-04-14T03:58:21.807Z,14.46
2023-04-14T04:00:49.849Z,14.52
2023-04-14T04:03:18.389Z,14.58
2023-04-14T04:05:46.863Z,14.42
2023-04-14T04:08:15.803Z,13.58
2023-04-14T04:10:45.877Z,12.77
2023-04-14T04:13:20.236Z,12.39
2023-04-14T04:15:52.608Z,12.95
2023-04-14T04:18:23.166Z,13.55
2023-04-14T04:20:51.619Z,13.91
2023-04-14T04:23:22.356Z,14.08
2023-04-14T04:25:50.750Z,14.09
2023-04-14T04:28:19.129Z,14.14
2023-04-14T04:30:48.167Z,14.18
2023-04-14T04:33:16.463Z,14.18
2023-04-14T04:35:44.790Z,14.19
2023-04-14T04:38:12.201Z,14.22
2023-04-14T04:40:39.763Z,14.27
2023-04-14T04:43:07.174Z,14.22
2023-04-14T04:46:00.475Z,14.24
2023-04-14T04:48:28.224Z,14.30
2023-04-14T04:50:55.470Z,14.36
2023-04-14T04:53:22.777Z,14.43
2023-04-14T04:55:50.067Z,14.48
2023-04-14T04:58:17.331Z,14.52
2023-04-14T05:00:44.586Z,14.54
2023-04-14T05:03:12.123Z,14.60
2023-04-14T05:05:39.393Z,14.67
2023-04-14T05:08:08.225Z,14.75
2023-04-14T05:10:37.523Z,14.80
2023-04-14T05:13:04.872Z,14.86
2023-04-14T05:15:32.543Z,14.96
2023-04-14T05:18:00.213Z,15.04
2023-04-14T05:20:28.512Z,15.10
2023-04-14T05:22:55.989Z,15.12
2023-04-14T05:25:23.521Z,14.62
2023-04-14T05:27:50.794Z,13.73
2023-04-14T05:30:18.400Z,12.99
2023-04-14T05:32:45.614Z,12.59
2023-04-14T05:35:12.825Z,12.96
2023-04-14T05:37:40.104Z,13.45
2023-04-14T05:40:08.031Z,13.80
2023-04-14T05:42:35.222Z,14.07
2023-04-14T05:45:02.496Z,14.29
2023-04-14T05:47:29.796Z,14.44
2023-04-14T05:49:57.052Z,14.60
2023-04-14T05:52:24.605Z,14.76
2023-04-14T05:54:51.776Z,14.84
2023-04-14T05:57:19.141Z,14.97
2023-04-14T05:59:46.858Z,15.06
2023-04-14T06:02:14.632Z,15.10
2023-04-14T06:04:41.970Z,15.11
2023-04-14T06:07:09.239Z,15.15
2023-04-14T06:09:36.626Z,15.23
2023-04-14T06:12:04.006Z,15.33
2023-04-14T06:14:31.367Z,15.38
2023-04-14T06:16:58.746Z,15.45
2023-04-14T06:19:25.969Z,15.48
2023-04-14T06:21:53.474Z,15.55
2023-04-14T06:24:20.867Z,15.61
2023-04-14T06:26:48.038Z,15.67
2023-04-14T06:29:15.262Z,15.12
2023-04-14T06:31:43.170Z,14.28
2023-04-14T06:34:10.478Z,13.79
2023-04-14T06:36:37.907Z,14.01
2023-04-14T06:39:05.385Z,14.40
2023-04-14T06:41:32.519Z,14.52
2023-04-14T06:43:59.872Z,14.75
2023-04-14T06:46:27.441Z,14.48
2023-04-14T06:48:54.618Z,14.71
2023-04-14T06:51:22.167Z,15.00
2023-04-14T06:53:49.649Z,15.17
2023-04-14T06:56:17.493Z,15.15
2023-04-14T06:58:44.792Z,15.08
2023-04-14T07:01:12.340Z,15.12
2023-04-14T07:03:39.766Z,15.35
2023-04-14T07:06:10.862Z,15.10
2023-04-14T07:08:39.271Z,14.93
2023-04-14T07:11:09.158Z,14.95
2023-04-14T07:13:38.389Z,15.03
2023-04-14T07:16:08.734Z,15.17
2023-04-14T07:18:36.611Z,15.25
2023-04-14T07:21:04.249Z,15.41
2023-04-14T07:23:33.412Z,15.18
2023-04-14T07:26:01.060Z,15.43
2023-04-14T07:28:28.978Z,15.79
2023-04-14T07:30:56.471Z,16.00
2023-04-14T07:33:25.866Z,15.90
2023-04-14T07:36:02.720Z,15.20
2023-04-14T07:38:30.630Z,14.65
2023-04-14T07:40:58.060Z,14.66
2023-04-14T07:43:25.279Z,14.73
2023-04-14T07:45:53.700Z,14.99
2023-04-14T07:48:22.676Z,15.19
2023-04-14T07:50:52.963Z,14.79
2023-04-14T07:53:20.393Z,14.31
2023-04-14T07:55:48.063Z,14.07
2023-04-14T07:58:17.621Z,14.52
2023-04-14T08:00:45.995Z,15.02
2023-04-14T08:03:14.311Z,14.83
2023-04-14T08:05:42.639Z,14.41
2023-04-14T08:08:13.930Z,14.15
2023-04-14T08:10:42.830Z,13.95
2023-04-14T08:13:11.086Z,13.80
2023-04-14T08:15:38.665Z,13.73
2023-04-14T08:18:08.359Z,13.96
2023-04-14T08:20:36.142Z,14.82
2023-04-14T08:23:03.565Z,15.60
2023-04-14T08:25:35.925Z,15.44
2023-04-14T08:28:03.377Z,15.00
2023-04-14T08:30:30.744Z,14.69
2023-04-14T08:33:04.242Z,14.55
2023-04-14T08:36:52.460Z,14.56
2023-04-14T08:39:22.588Z,14.66
2023-04-14T08:41:53.986Z,14.72
2023-04-14T08:44:24.967Z,14.82
2023-04-14T08:46:56.319Z,14.89
2023-04-14T08:49:53.867Z,15.06
2023-04-14T08:52:27.913Z,14.98
2023-04-14T08:54:58.153Z,14.93
2023-04-14T08:57:27.072Z,14.88
2023-04-14T08:59:59.584Z,14.82
2023-04-14T09:02:28.357Z,14.79
2023-04-14T09:04:58.037Z,14.74
2023-04-14T09:07:28.231Z,14.70
2023-04-14T09:09:58.442Z,14.72
2023-04-14T09:12:28.058Z,14.71
2023-04-14T09:14:59.126Z,14.79
2023-04-14T09:17:28.981Z,14.83
2023-04-14T09:20:35.251Z,14.99
2023-04-14T09:22:45.071Z,15.22
2023-04-14T09:25:13.971Z,15.45
2023-04-14T09:27:41.785Z,15.57
2023-04-14T09:30:10.737Z,15.71
2023-04-14T09:32:39.105Z,15.80
2023-04-14T09:35:07.534Z,15.84
2023-04-14T09:37:45.439Z,15.95
2023-04-14T09:40:33.042Z,16.16
2023-04-14T09:43:01.503Z,16.25
2023-04-14T09:45:45.394Z,16.37
2023-04-14T09:48:15.157Z,16.38
2023-04-14T09:51:10.497Z,16.40
2023-04-14T09:54:05.677Z,16.42
2023-04-14T09:56:34.441Z,16.61
2023-04-14T09:59:05.352Z,16.65
2023-04-14T10:01:37.539Z,16.72
2023-04-14T10:04:24.005Z,16.78
2023-04-14T10:06:58.249Z,16.71
2023-04-14T10:09:29.536Z,16.71
2023-04-14T10:12:11.260Z,16.57
2023-04-14T10:14:43.466Z,16.47
2023-04-14T10:17:13.355Z,16.45
2023-04-14T10:19:42.115Z,16.31
2023-04-14T10:22:10.292Z,16.31
2023-04-14T10:24:44.287Z,16.53
2023-04-14T10:27:14.875Z,16.63
2023-04-14T10:29:54.028Z,16.64
2023-04-14T10:32:25.903Z,16.75
2023-04-14T10:35:05.943Z,16.69
2023-04-14T10:37:36.685Z,16.75
2023-04-14T10:40:07.716Z,16.89
2023-04-14T10:43:12.871Z,17.09
2023-04-14T10:46:00.830Z,17.07
2023-04-14T10:48:37.296Z,17.02
2023-04-14T10:51:12.295Z,16.80
2023-04-14T10:53:46.869Z,16.66
2023-04-14T10:56:14.616Z,16.67
2023-04-14T10:58:43.398Z,16.62
2023-04-14T11:01:27.294Z,16.50
2023-04-14T11:03:56.917Z,16.50
2023-04-14T11:06:49.348Z,16.47
2023-04-14T11:09:43.180Z,16.48
2023-04-14T11:12:25.297Z,16.45
2023-04-14T11:15:11.102Z,16.46
2023-04-14T11:17:40.426Z,16.61
2023-04-14T11:20:24.242Z,16.57
2023-04-14T11:22:54.860Z,16.64
2023-04-14T11:25:24.493Z,16.73
2023-04-14T11:27:53.206Z,16.63
2023-04-14T11:30:22.401Z,16.60
2023-04-14T11:32:55.207Z,16.56
2023-04-14T11:35:27.139Z,16.57
2023-04-14T11:37:59.562Z,16.58
2023-04-14T11:40:28.280Z,16.57
2023-04-14T11:42:59.262Z,16.54
2023-04-14T11:45:31.606Z,16.55
2023-04-14T11:48:07.457Z,16.57
2023-04-14T11:50:46.511Z,16.61
2023-04-14T11:53:18.946Z,16.60
2023-04-14T11:55:53.714Z,16.62
2023-04-14T11:58:24.606Z,16.65
2023-04-14T12:00:56.012Z,16.67
2023-04-14T12:03:29.884Z,16.62
2023-04-14T12:06:03.742Z,16.59
2023-04-14T12:08:32.445Z,16.63
2023-04-14T12:11:12.446Z,16.78
2023-04-14T12:13:44.352Z,16.89
2023-04-14T12:16:16.883Z,16.93
2023-04-14T12:18:45.021Z,16.87
2023-04-14T12:21:18.339Z,16.81
2023-04-14T12:23:50.417Z,16.73
2023-04-14T12:26:20.604Z,16.66
2023-04-14T12:29:03.608Z,16.61
2023-04-14T12:31:31.285Z,16.55
2023-04-14T12:34:07.771Z,16.53
2023-04-14T12:36:49.564Z,16.53
2023-04-14T12:39:18.298Z,16.56
2023-04-14T12:41:46.648Z,16.62
2023-04-14T12:44:20.037Z,16.66
2023-04-14T12:46:52.190Z,16.70
2023-04-14T12:49:39.718Z,16.75
2023-04-14T12:52:08.873Z,16.76
2023-04-14T12:54:52.813Z,16.71
2023-04-14T12:57:22.962Z,16.60
2023-04-14T12:59:51.515Z,16.56
2023-04-14T13:02:19.214Z,16.56
2023-04-14T13:04:47.287Z,16.51
2023-04-14T13:07:14.577Z,16.45
2023-04-14T13:09:44.046Z,16.37
2023-04-14T13:12:12.601Z,16.38
2023-04-14T13:14:40.084Z,16.35
2023-04-14T13:17:07.769Z,16.32
2023-04-14T13:19:36.190Z,16.31
2023-04-14T13:22:03.434Z,16.34
2023-04-14T13:24:31.314Z,16.21
2023-04-14T13:26:58.879Z,16.19
2023-04-14T13:29:26.578Z,16.15
2023-04-14T13:31:53.946Z,16.12
2023-04-14T13:34:22.013Z,16.14
2023-04-14T13:36:49.323Z,16.26
2023-04-14T13:39:17.155Z,16.22
2023-04-14T13:41:44.531Z,16.21
2023-04-14T13:44:12.964Z,16.20
2023-04-14T13:46:44.926Z,16.15
2023-04-14T13:49:13.269Z,16.14
2023-04-14T13:51:40.793Z,16.09
2023-04-14T13:54:08.666Z,16.18
2023-04-14T13:56:36.249Z,16.17
2023-04-14T13:59:04.097Z,16.18
2023-04-14T14:01:31.848Z,16.12
2023-04-14T14:03:59.803Z,16.13
2023-04-14T14:06:28.067Z,16.13
2023-04-14T14:09:05.523Z,16.10
2023-04-14T14:11:33.968Z,16.09
2023-04-14T14:14:01.483Z,16.08
2023-04-14T14:16:36.777Z,16.07
2023-04-14T14:19:07.834Z,16.07
2023-04-14T14:21:36.588Z,16.11
2023-04-14T14:24:04.296Z,16.11
2023-04-14T14:26:32.130Z,16.15
2023-04-14T14:28:59.492Z,16.23
2023-04-14T14:31:26.862Z,16.17
2023-04-14T14:33:54.137Z,16.14
2023-04-14T14:36:22.060Z,16.12
2023-04-14T14:38:49.368Z,16.11
2023-04-14T14:41:16.824Z,16.04
2023-04-14T14:43:44.609Z,16.04
2023-04-14T14:46:11.971Z,15.95
2023-04-14T14:48:39.304Z,15.92
2023-04-14T14:51:06.777Z,15.88
2023-04-14T14:53:33.949Z,15.87
2023-04-14T14:56:01.729Z,15.90
2023-04-14T14:58:30.575Z,15.89
2023-04-14T15:00:57.726Z,15.84
2023-04-14T15:03:25.155Z,15.84
2023-04-14T15:05:55.509Z,15.81
2023-04-14T15:08:22.776Z,15.79
2023-04-14T15:10:52.425Z,15.81
2023-04-14T15:13:19.811Z,15.79
2023-04-14T15:15:47.704Z,15.84
2023-04-14T15:18:15.263Z,15.84
2023-04-14T15:20:43.008Z,15.81
2023-04-14T15:23:10.218Z,15.83
2023-04-14T15:25:37.971Z,15.85
2023-04-14T15:28:05.661Z,15.86
2023-04-14T15:30:33.123Z,15.84
2023-04-14T15:33:01.319Z,15.86
2023-04-14T15:35:28.993Z,15.85
2023-04-14T15:37:56.278Z,15.82
2023-04-14T15:40:23.675Z,15.78
2023-04-14T15:42:51.180Z,15.73
2023-04-14T15:45:18.731Z,15.71
2023-04-14T15:47:46.751Z,15.73
2023-04-14T15:50:18.570Z,15.67
2023-04-14T15:52:46.348Z,15.65
2023-04-14T15:55:14.236Z,15.67
2023-04-14T15:57:42.381Z,15.63
2023-04-14T16:00:10.306Z,15.61
2023-04-14T16:02:37.901Z,15.60
2023-04-14T16:05:06.441Z,15.61
2023-04-14T16:07:34.058Z,15.57
2023-04-14T16:10:01.551Z,15.56
2023-04-14T16:12:31.164Z,15.53
2023-04-14T16:14:59.400Z,15.49
2023-04-14T16:17:26.750Z,15.46
2023-04-14T16:19:55.594Z,15.47
2023-04-14T16:22:23.085Z,15.46
2023-04-14T16:24:50.254Z,15.41
2023-04-14T16:27:18.018Z,15.39
2023-04-14T16:29:46.229Z,15.36
2023-04-14T16:32:13.733Z,15.36
2023-04-14T16:34:41.357Z,15.30
2023-04-14T16:37:08.965Z,15.26
2023-04-14T16:39:36.164Z,15.22
2023-04-14T16:42:04.497Z,15.20
2023-04-14T16:44:33.182Z,15.17
2023-04-14T16:47:00.967Z,15.15
2023-04-14T16:49:28.622Z,15.11
2023-04-14T16:51:58.291Z,15.08
2023-04-14T16:54:28.144Z,15.06
2023-04-14T16:56:55.800Z,15.05
2023-04-14T16:59:23.740Z,15.02
2023-04-14T17:01:51.422Z,14.99
2023-04-14T17:04:20.011Z,14.96
2023-04-14T17:06:48.932Z,14.94
2023-04-14T17:09:18.349Z,14.92
2023-04-14T17:11:46.545Z,14.89
2023-04-14T17:14:13.880Z,14.86
2023-04-14T17:16:41.726Z,14.83
2023-04-14T17:19:09.672Z,14.81
2023-04-14T17:21:39.308Z,14.78
2023-04-14T17:24:06.708Z,14.76
2023-04-14T17:26:34.369Z,14.74
2023-04-14T17:29:02.890Z,14.71
2023-04-14T17:31:31.484Z,14.68
2023-04-14T17:33:59.502Z,14.66
2023-04-14T17:36:28.565Z,14.64
2023-04-14T17:38:57.144Z,14.62
2023-04-14T17:41:26.295Z,14.62
2023-04-14T17:43:54.670Z,14.61
2023-04-14T17:46:30.330Z,14.58
2023-04-14T17:48:58.324Z,14.55
2023-04-14T17:51:26.577Z,14.50
2023-04-14T17:53:55.274Z,14.51
2023-04-14T17:56:23.789Z,14.48
2023-04-14T17:58:54.968Z,14.44
2023-04-14T18:01:25.200Z,14.42
2023-04-14T18:03:53.293Z,14.38
2023-04-14T18:06:21.069Z,14.38
2023-04-14T18:08:49.571Z,14.35
2023-04-14T18:11:18.380Z,14.29
2023-04-14T18:13:46.570Z,14.26
2023-04-14T18:16:17.026Z,14.22
2023-04-14T18:18:44.960Z,14.18
2023-04-14T18:21:14.664Z,14.15
2023-04-14T18:23:43.260Z,14.10
2023-04-14T18:28:43.269Z,14.02
2023-04-14T18:31:14.165Z,13.94
2023-04-14T18:33:44.190Z,13.85
2023-04-14T18:36:12.455Z,13.79
2023-04-14T18:38:40.459Z,13.75
2023-04-14T18:41:09.195Z,13.69
2023-04-14T18:43:39.189Z,13.52
2023-04-14T18:46:07.703Z,13.54
2023-04-14T18:48:35.996Z,14.18
2023-04-14T18:51:08.333Z,14.87
2023-04-14T18:53:41.091Z,15.23
2023-04-14T18:56:13.370Z,14.71
2023-04-14T18:58:44.318Z,14.18
2023-04-14T19:01:13.447Z,14.37
2023-04-14T19:03:42.233Z,15.09
2023-04-14T19:06:10.052Z,15.37
2023-04-14T19:08:39.532Z,14.68
2023-04-14T19:11:08.009Z,14.29
2023-04-14T19:13:36.005Z,14.75
2023-04-14T19:16:10.787Z,15.15
2023-04-14T19:18:40.842Z,15.67
2023-04-14T19:21:13.201Z,15.57
2023-04-14T19:23:41.566Z,14.82
2023-04-14T19:26:11.573Z,14.21
2023-04-14T19:28:44.852Z,13.96
2023-04-14T19:31:18.432Z,14.57
2023-04-14T19:33:47.888Z,15.28
2023-04-14T19:36:19.257Z,15.47
2023-04-14T19:38:47.671Z,14.82
2023-04-14T19:41:17.342Z,14.21
2023-04-14T19:43:46.855Z,14.00
2023-04-14T19:46:20.105Z,14.67
2023-04-14T19:48:48.963Z,15.31
2023-04-14T19:51:17.300Z,15.53
2023-04-14T19:53:48.748Z,14.89
2023-04-14T19:56:17.285Z,14.22
2023-04-14T19:58:45.705Z,14.24
2023-04-14T20:01:13.807Z,14.83
2023-04-14T20:04:05.059Z,15.14
2023-04-14T20:06:29.562Z,15.71
2023-04-14T20:08:57.203Z,15.52
2023-04-14T20:11:29.099Z,14.65
2023-04-14T20:13:57.097Z,14.23
2023-04-14T20:16:27.437Z,14.83
2023-04-14T20:18:55.801Z,15.30
2023-04-14T20:21:23.832Z,15.46
2023-04-14T20:23:52.087Z,15.76
2023-04-14T20:26:21.012Z,15.36
2023-04-14T20:28:49.269Z,14.59
2023-04-14T20:31:17.349Z,14.56
2023-04-14T20:33:44.970Z,15.14
2023-04-14T20:36:14.468Z,15.54
2023-04-14T20:38:44.435Z,15.73
2023-04-14T20:41:12.104Z,15.46
2023-04-14T20:43:41.078Z,14.70
2023-04-14T20:46:09.633Z,14.27
2023-04-14T20:48:37.413Z,14.75
2023-04-14T20:51:05.262Z,15.32
2023-04-14T20:53:32.953Z,15.71
2023-04-14T20:56:00.330Z,15.60
2023-04-14T20:58:29.192Z,14.91
2023-04-14T21:00:57.426Z,14.39
2023-04-14T21:03:25.038Z,14.82
2023-04-14T21:05:53.549Z,15.29
2023-04-14T21:08:21.779Z,15.69
2023-04-14T21:11:15.834Z,15.35
2023-04-14T21:15:26.479Z,14.47
2023-04-14T21:16:25.581Z,14.28
2023-04-14T21:18:53.095Z,14.89
2023-04-14T21:21:20.378Z,15.35
2023-04-14T21:23:47.557Z,15.30
2023-04-14T21:26:15.515Z,15.47
2023-04-14T21:28:43.320Z,15.56
2023-04-14T21:31:11.848Z,14.76
2023-04-14T21:33:42.303Z,14.28
2023-04-14T21:36:12.313Z,14.49
2023-04-14T21:38:39.990Z,15.00
2023-04-14T21:41:08.834Z,14.97
2023-04-14T21:43:39.002Z,15.42
2023-04-14T21:46:06.313Z,15.46
2023-04-14T21:48:34.477Z,14.82
2023-04-14T21:51:01.837Z,14.12
2023-04-14T21:53:28.920Z,14.29
2023-04-14T21:56:10.151Z,14.79
2023-04-14T21:58:39.815Z,15.25
2023-04-14T22:01:13.307Z,15.37
2023-04-14T22:03:41.690Z,14.81
2023-04-14T22:06:12.900Z,14.17
2023-04-14T22:08:41.205Z,14.40
2023-04-14T22:11:08.406Z,14.66
2023-04-14T22:13:35.738Z,15.18
2023-04-14T22:16:04.458Z,15.04
2023-04-14T22:18:32.410Z,15.09
2023-04-14T22:20:59.981Z,15.11
2023-04-14T22:23:29.002Z,15.36
2023-04-14T22:25:56.608Z,15.26
2023-04-14T22:28:23.819Z,15.09
2023-04-14T22:30:51.597Z,15.13
2023-04-14T22:33:18.852Z,15.22
2023-04-14T22:35:46.123Z,15.18
2023-04-14T22:38:14.123Z,15.39
2023-04-14T22:40:41.810Z,15.38
2023-04-14T22:43:09.342Z,15.16
2023-04-14T22:45:38.603Z,15.18
2023-04-14T22:48:09.316Z,15.16
2023-04-14T22:50:37.239Z,15.24
2023-04-14T22:53:05.359Z,15.30
2023-04-14T22:55:32.740Z,15.28
2023-04-14T22:57:59.914Z,15.13
2023-04-14T23:00:27.743Z,15.05
2023-04-14T23:02:56.201Z,15.07
2023-04-14T23:05:23.716Z,15.30
2023-04-14T23:07:51.978Z,14.95
2023-04-14T23:10:19.580Z,14.78
2023-04-14T23:12:47.309Z,15.17
2023-04-14T23:15:15.270Z,15.30
2023-04-14T23:17:42.482Z,15.34
2023-04-14T23:20:09.950Z,15.41
2023-04-14T23:22:38.358Z,15.43
2023-04-14T23:25:06.541Z,14.81
2023-04-14T23:27:33.762Z,14.03
2023-04-14T23:30:02.113Z,14.22
2023-04-14T23:32:29.457Z,14.44
2023-04-14T23:34:56.836Z,14.54
2023-04-14T23:37:24.493Z,14.64
2023-04-14T23:39:51.683Z,14.70
2023-04-14T23:42:18.871Z,14.78
2023-04-14T23:44:46.452Z,14.96
2023-04-14T23:47:13.857Z,14.92
2023-04-14T23:49:41.590Z,14.94
2023-04-14T23:52:09.217Z,14.92
2023-04-14T23:54:36.406Z,14.93
2023-04-14T23:57:03.576Z,15.08
2023-04-14T23:59:31.174Z,15.17
